aviador You're here:

KCDI Decoded Metar

in
Report Time2017-10-21 15:33:00
UTC Time2017-10-21 15:54:11
Flight Rules vfr VFR
WindCalm
Visibility9999 m
Phenomena:N/A
Clouds:N/A
Expected CloudBase > 2,800 ft AGL from Temp-Dew spread
CeilingNone
Temp17°C
Dew Point10°C (64% RH)
QNH1026 hPa
Raw Report
KCDI 211533Z AUTO 00000KT 10SM CLR 17/10 A3030 RMK AO2
T01740101=

Extra information for KCDI:More info

Social comments